Time;durP1;ratioP1;P1;durP2;ratioP2;P2;SDS_P1;SDS_P2;PMS_P1;PMS_P2;Temp;Humidity;BMP_temperature;BMP_pressure;BME280_temperature;BME280_humidity;BME280_pressure;Samples;Min_cycle;Max_cycle;Signal;HPM_P1;HPM_P2
2024/02/26 00:00:42;;;;;;;5.32;4.03;;;;;;;;;;5003388;28;20033;-74
2024/02/26 00:03:28;;;;;;;4.85;4.28;;;;;;;;;;5000990;28;20033;-74
2024/02/26 00:06:14;;;;;;;11.88;7.60;;;;;;;;;;4996438;28;20028;-74
2024/02/26 00:09:00;;;;;;;13.95;8.30;;;;;;;;;;5013791;28;20018;-74
2024/02/26 00:11:46;;;;;;;12.45;7.05;;;;;;;;;;5023898;28;20032;-74
2024/02/26 00:14:31;;;;;;;12.27;7.25;;;;;;;;;;5033593;28;20067;-74
2024/02/26 00:17:17;;;;;;;10.60;6.75;;;;;;;;;;5002013;28;20017;-74
2024/02/26 00:20:09;;;;;;;14.75;8.32;;;;;;;;;;5021186;28;20028;-74
2024/02/26 00:22:55;;;;;;;11.50;6.22;;;;;;;;;;5018942;28;20045;-74
2024/02/26 00:25:42;;;;;;;4.78;3.63;;;;;;;;;;5001514;28;20022;-74
2024/02/26 00:28:29;;;;;;;7.85;5.35;;;;;;;;;;5001061;28;20044;-74
2024/02/26 00:31:14;;;;;;;7.55;4.75;;;;;;;;;;5016231;28;20026;-74
2024/02/26 00:34:00;;;;;;;7.18;5.40;;;;;;;;;;5026277;28;20037;-74
2024/02/26 00:36:46;;;;;;;8.65;6.13;;;;;;;;;;5019342;28;20025;-74
2024/02/26 00:39:31;;;;;;;8.02;6.07;;;;;;;;;;5032005;28;20026;-74
2024/02/26 00:42:17;;;;;;;6.88;5.43;;;;;;;;;;5014825;28;20097;-74
2024/02/26 00:45:03;;;;;;;9.25;5.18;;;;;;;;;;5001802;28;20108;-74
2024/02/26 00:47:49;;;;;;;9.02;5.80;;;;;;;;;;5017726;28;20025;-74
2024/02/26 00:50:35;;;;;;;10.52;5.70;;;;;;;;;;5013432;28;20030;-74
2024/02/26 00:53:20;;;;;;;10.95;6.85;;;;;;;;;;5015325;28;20138;-73
2024/02/26 00:56:06;;;;;;;11.02;5.78;;;;;;;;;;5019664;28;20502;-74
2024/02/26 00:58:52;;;;;;;10.70;6.15;;;;;;;;;;5005501;28;20052;-74
2024/02/26 01:01:37;;;;;;;10.88;6.28;;;;;;;;;;5011287;28;20025;-74
2024/02/26 01:04:23;;;;;;;7.55;5.25;;;;;;;;;;5034256;28;20176;-73
2024/02/26 01:07:09;;;;;;;13.20;7.43;;;;;;;;;;5018723;28;20032;-74
2024/02/26 01:09:54;;;;;;;10.88;6.72;;;;;;;;;;5005455;28;20034;-74
2024/02/26 01:12:40;;;;;;;12.20;7.15;;;;;;;;;;5013450;28;20022;-74
2024/02/26 01:15:28;;;;;;;14.90;6.40;;;;;;;;;;5025707;28;20411;-74
2024/02/26 01:18:14;;;;;;;15.68;7.82;;;;;;;;;;5026337;28;20029;-74
2024/02/26 01:20:59;;;;;;;13.75;7.32;;;;;;;;;;5032360;28;20025;-74
2024/02/26 01:23:45;;;;;;;18.00;8.57;;;;;;;;;;5031840;28;20037;-73
2024/02/26 01:26:31;;;;;;;22.85;10.70;;;;;;;;;;5017400;28;20025;-73
2024/02/26 01:29:16;;;;;;;20.52;10.30;;;;;;;;;;5032843;28;20022;-73
2024/02/26 01:32:04;;;;;;;23.30;11.07;;;;;;;;;;5015863;28;20021;-74
2024/02/26 01:34:50;;;;;;;20.73;10.85;;;;;;;;;;4999408;28;20033;-74
2024/02/26 01:37:36;;;;;;;19.98;9.57;;;;;;;;;;4999391;28;20036;-74
2024/02/26 01:40:22;;;;;;;24.67;8.93;;;;;;;;;;5024848;28;20024;-73
2024/02/26 01:43:07;;;;;;;23.50;11.82;;;;;;;;;;5032694;28;20029;-74
2024/02/26 01:46:00;;;;;;;23.90;10.57;;;;;;;;;;5014788;28;20518;-74
2024/02/26 01:48:47;;;;;;;22.42;9.70;;;;;;;;;;5034036;28;20037;-74
2024/02/26 01:51:33;;;;;;;17.67;8.68;;;;;;;;;;5019208;28;20091;-74
2024/02/26 01:54:19;;;;;;;21.70;10.07;;;;;;;;;;5015163;28;20029;-74
2024/02/26 01:57:06;;;;;;;23.80;9.63;;;;;;;;;;5013176;28;20021;-74
2024/02/26 01:59:52;;;;;;;22.77;9.95;;;;;;;;;;5003379;28;20033;-74
2024/02/26 02:02:38;;;;;;;21.42;9.32;;;;;;;;;;5017543;28;20036;-74
2024/02/26 02:05:24;;;;;;;28.02;12.77;;;;;;;;;;5018199;28;20087;-74
2024/02/26 02:08:11;;;;;;;23.30;9.63;;;;;;;;;;5017804;28;20029;-74
2024/02/26 02:10:57;;;;;;;27.13;10.52;;;;;;;;;;5017725;28;20505;-74
2024/02/26 02:13:43;;;;;;;24.50;11.68;;;;;;;;;;5029649;28;20051;-73
2024/02/26 02:16:29;;;;;;;23.10;10.55;;;;;;;;;;4998115;28;20018;-74
2024/02/26 02:19:14;;;;;;;19.67;10.10;;;;;;;;;;5029451;28;20021;-74
2024/02/26 02:22:00;;;;;;;23.58;10.02;;;;;;;;;;5018258;28;20028;-73
2024/02/26 02:24:46;;;;;;;20.98;9.60;;;;;;;;;;5032823;28;20499;-74
2024/02/26 02:27:32;;;;;;;21.30;8.45;;;;;;;;;;5033203;28;20399;-73
2024/02/26 02:30:17;;;;;;;17.10;8.35;;;;;;;;;;5016100;28;20456;-73
2024/02/26 02:33:03;;;;;;;19.60;8.27;;;;;;;;;;5014589;28;20033;-74
2024/02/26 02:35:50;;;;;;;21.77;10.45;;;;;;;;;;5031121;28;20084;-73
2024/02/26 02:38:37;;;;;;;22.40;9.77;;;;;;;;;;5019482;28;20029;-74
2024/02/26 02:41:22;;;;;;;20.83;10.18;;;;;;;;;;5012785;28;20030;-74
2024/02/26 02:44:08;;;;;;;27.77;9.65;;;;;;;;;;4998905;28;20506;-74
2024/02/26 02:46:53;;;;;;;23.00;10.10;;;;;;;;;;5013059;28;20028;-74
2024/02/26 02:49:39;;;;;;;24.80;9.98;;;;;;;;;;5012435;28;20029;-74
2024/02/26 02:52:25;;;;;;;22.58;8.75;;;;;;;;;;5012648;28;20022;-74
2024/02/26 02:55:10;;;;;;;23.40;10.27;;;;;;;;;;4997340;28;20030;-74
2024/02/26 02:57:56;;;;;;;23.10;9.65;;;;;;;;;;5012129;28;20137;-74
2024/02/26 03:00:42;;;;;;;23.10;9.82;;;;;;;;;;5012760;28;20541;-74
2024/02/26 03:03:28;;;;;;;26.75;11.40;;;;;;;;;;4997300;28;20026;-74
2024/02/26 03:06:14;;;;;;;21.00;10.05;;;;;;;;;;5013561;28;20029;-74
2024/02/26 03:09:00;;;;;;;20.83;9.55;;;;;;;;;;5012297;28;20026;-74
2024/02/26 03:11:46;;;;;;;19.45;10.48;;;;;;;;;;5012793;28;20026;-74
2024/02/26 03:14:32;;;;;;;22.35;9.23;;;;;;;;;;5012755;28;20076;-74
2024/02/26 03:17:17;;;;;;;27.98;11.43;;;;;;;;;;4997198;28;20026;-74
2024/02/26 03:20:05;;;;;;;24.60;10.38;;;;;;;;;;5012846;28;20033;-73
2024/02/26 03:22:50;;;;;;;24.63;10.90;;;;;;;;;;5012602;28;20030;-74
2024/02/26 03:25:36;;;;;;;27.40;11.27;;;;;;;;;;5016750;28;20029;-74
2024/02/26 03:28:21;;;;;;;28.38;11.57;;;;;;;;;;5016110;28;20050;-74
2024/02/26 03:31:07;;;;;;;27.02;10.52;;;;;;;;;;5002606;28;20105;-74
2024/02/26 03:33:53;;;;;;;19.60;8.98;;;;;;;;;;5014424;28;20025;-74
2024/02/26 03:36:38;;;;;;;17.75;9.00;;;;;;;;;;5000188;28;20514;-74
2024/02/26 03:39:24;;;;;;;19.30;9.63;;;;;;;;;;5000054;28;20594;-74
2024/02/26 03:42:10;;;;;;;19.48;9.02;;;;;;;;;;5015473;28;20061;-74
2024/02/26 03:44:55;;;;;;;19.77;8.07;;;;;;;;;;5001469;28;20033;-74
2024/02/26 03:47:41;;;;;;;19.08;8.23;;;;;;;;;;5015896;28;20033;-74
2024/02/26 03:50:26;;;;;;;20.38;10.02;;;;;;;;;;5001991;28;20027;-74
2024/02/26 03:53:12;;;;;;;15.60;8.35;;;;;;;;;;5016311;28;20507;-74
2024/02/26 03:56:03;;;;;;;19.23;9.07;;;;;;;;;;5015044;28;20028;-74
2024/02/26 03:58:48;;;;;;;29.65;10.75;;;;;;;;;;5015001;28;20064;-74
2024/02/26 04:01:34;;;;;;;27.73;9.43;;;;;;;;;;5001030;28;20026;-74
2024/02/26 04:04:19;;;;;;;37.28;10.27;;;;;;;;;;5015135;28;20022;-74
2024/02/26 04:07:05;;;;;;;29.40;8.30;;;;;;;;;;5014961;28;20030;-74
2024/02/26 04:09:51;;;;;;;42.63;8.77;;;;;;;;;;5017991;28;20403;-73
2024/02/26 04:12:43;;;;;;;53.60;11.73;;;;;;;;;;5029591;28;20138;-74
2024/02/26 04:15:30;;;;;;;47.08;10.85;;;;;;;;;;5021362;28;20030;-73
2024/02/26 04:18:15;;;;;;;15.32;7.43;;;;;;;;;;5027973;28;20048;-73
2024/02/26 04:21:01;;;;;;;36.65;11.18;;;;;;;;;;5033506;28;20057;-74
2024/02/26 04:23:46;;;;;;;41.08;10.32;;;;;;;;;;5021443;28;20116;-73
2024/02/26 04:26:32;;;;;;;20.17;7.68;;;;;;;;;;5014835;28;20385;-74
2024/02/26 04:29:18;;;;;;;25.27;8.70;;;;;;;;;;5016328;28;20022;-73
2024/02/26 04:32:03;;;;;;;23.70;10.23;;;;;;;;;;5005494;28;20022;-74
2024/02/26 04:34:49;;;;;;;41.45;12.82;;;;;;;;;;5013255;28;20022;-74
2024/02/26 04:37:35;;;;;;;31.80;12.02;;;;;;;;;;5019770;28;20026;-73
2024/02/26 04:40:20;;;;;;;35.85;12.32;;;;;;;;;;5034913;28;20018;-73
2024/02/26 04:43:06;;;;;;;28.90;11.88;;;;;;;;;;5030560;28;20026;-73
2024/02/26 04:45:52;;;;;;;31.75;9.10;;;;;;;;;;5084782;22;20405;-71
2024/02/26 04:48:38;;;;;;;26.33;11.38;;;;;;;;;;5054855;28;20569;-71
2024/02/26 04:51:24;;;;;;;24.95;11.02;;;;;;;;;;5027086;28;20021;-71
2024/02/26 04:54:09;;;;;;;32.97;11.45;;;;;;;;;;5054258;28;20025;-71
2024/02/26 04:56:55;;;;;;;29.40;11.10;;;;;;;;;;5032737;28;20029;-71
2024/02/26 04:59:44;;;;;;;26.38;10.93;;;;;;;;;;5033443;28;20515;-71
2024/02/26 05:02:32;;;;;;;23.02;10.85;;;;;;;;;;5033399;28;20030;-71
2024/02/26 05:05:18;;;;;;;27.38;11.75;;;;;;;;;;5018617;28;20495;-71
2024/02/26 05:08:03;;;;;;;28.90;12.63;;;;;;;;;;5002190;28;20053;-71
2024/02/26 05:10:52;;;;;;;28.60;11.88;;;;;;;;;;5032918;28;20446;-71
2024/02/26 05:13:37;;;;;;;27.45;14.18;;;;;;;;;;5034421;28;20018;-71
2024/02/26 05:16:24;;;;;;;25.40;10.15;;;;;;;;;;5013727;28;20040;-71
2024/02/26 05:19:11;;;;;;;25.33;10.40;;;;;;;;;;5018200;28;20060;-71
2024/02/26 05:21:59;;;;;;;27.67;10.13;;;;;;;;;;5013020;28;20464;-71
2024/02/26 05:24:44;;;;;;;29.35;10.65;;;;;;;;;;4998921;28;20021;-71
2024/02/26 05:27:30;;;;;;;28.02;12.35;;;;;;;;;;5034391;28;20025;-71
2024/02/26 05:30:15;;;;;;;27.92;11.27;;;;;;;;;;5028074;28;20029;-71
2024/02/26 05:33:04;;;;;;;27.40;12.02;;;;;;;;;;5033200;28;20021;-71
2024/02/26 05:35:49;;;;;;;26.88;11.60;;;;;;;;;;5031150;28;20095;-71
2024/02/26 05:38:35;;;;;;;24.02;10.30;;;;;;;;;;5031553;28;20087;-71
2024/02/26 05:41:26;;;;;;;30.48;11.35;;;;;;;;;;5007761;28;20092;-71
2024/02/26 05:44:15;;;;;;;25.70;10.95;;;;;;;;;;5013533;28;20033;-71
2024/02/26 05:47:01;;;;;;;28.48;11.60;;;;;;;;;;5027823;28;20113;-71
2024/02/26 05:49:47;;;;;;;18.20;8.23;;;;;;;;;;5018404;28;20021;-71
2024/02/26 05:52:32;;;;;;;24.27;11.20;;;;;;;;;;5029026;28;20475;-71
2024/02/26 05:55:18;;;;;;;27.27;12.32;;;;;;;;;;5012950;28;20033;-71
2024/02/26 05:58:04;;;;;;;27.33;10.35;;;;;;;;;;5012829;28;20030;-71
2024/02/26 06:00:49;;;;;;;27.80;11.32;;;;;;;;;;5015888;28;20113;-70
2024/02/26 06:03:35;;;;;;;25.60;10.50;;;;;;;;;;5012728;28;20037;-71
2024/02/26 06:06:22;;;;;;;29.55;10.63;;;;;;;;;;5012936;28;20029;-71
2024/02/26 06:09:08;;;;;;;25.67;10.45;;;;;;;;;;5018483;28;20040;-71
2024/02/26 06:11:54;;;;;;;22.58;9.70;;;;;;;;;;5012905;28;20097;-71
2024/02/26 06:14:39;;;;;;;33.15;10.63;;;;;;;;;;5022492;28;20510;-71
2024/02/26 06:17:25;;;;;;;27.80;10.20;;;;;;;;;;5019508;28;20030;-71
2024/02/26 06:20:12;;;;;;;22.92;9.80;;;;;;;;;;5012688;28;20021;-72
2024/02/26 06:22:58;;;;;;;24.17;10.05;;;;;;;;;;5026592;28;20088;-71
2024/02/26 06:25:44;;;;;;;21.90;9.07;;;;;;;;;;5032366;28;20025;-72
2024/02/26 06:28:32;;;;;;;24.30;9.02;;;;;;;;;;5012553;28;20117;-71
2024/02/26 06:31:17;;;;;;;26.00;10.70;;;;;;;;;;5017735;28;20025;-71
2024/02/26 06:34:03;;;;;;;26.23;12.18;;;;;;;;;;5032772;28;20072;-71
2024/02/26 06:36:49;;;;;;;23.27;9.77;;;;;;;;;;5018239;28;20064;-72
2024/02/26 06:39:34;;;;;;;24.27;10.55;;;;;;;;;;5015381;28;20180;-71
2024/02/26 06:42:20;;;;;;;27.63;10.57;;;;;;;;;;4995639;28;20038;-71
2024/02/26 06:45:07;;;;;;;23.00;8.45;;;;;;;;;;4998396;28;20034;-71
2024/02/26 06:47:52;;;;;;;26.25;9.05;;;;;;;;;;5013338;28;20030;-71
2024/02/26 06:50:38;;;;;;;25.25;9.30;;;;;;;;;;5012354;28;20057;-71
2024/02/26 06:53:24;;;;;;;24.73;9.75;;;;;;;;;;4999092;28;20018;-71
2024/02/26 06:56:09;;;;;;;23.55;11.00;;;;;;;;;;5007753;28;20042;-71
2024/02/26 06:58:55;;;;;;;26.60;11.55;;;;;;;;;;5013347;28;20021;-71
2024/02/26 07:01:41;;;;;;;29.35;10.65;;;;;;;;;;5023795;28;20030;-71
2024/02/26 07:04:27;;;;;;;23.75;10.40;;;;;;;;;;5000950;28;20109;-71
2024/02/26 07:07:13;;;;;;;21.67;9.18;;;;;;;;;;5016309;28;20022;-71
2024/02/26 07:09:58;;;;;;;25.58;8.88;;;;;;;;;;5004635;28;20029;-71
2024/02/26 07:12:44;;;;;;;32.60;11.85;;;;;;;;;;5015847;28;20499;-71
2024/02/26 07:15:30;;;;;;;26.67;9.52;;;;;;;;;;5009452;28;20522;-71
2024/02/26 07:18:16;;;;;;;26.98;11.70;;;;;;;;;;5016504;28;20053;-71
2024/02/26 07:21:02;;;;;;;25.15;9.90;;;;;;;;;;5016088;28;20028;-71
2024/02/26 07:23:48;;;;;;;24.17;9.95;;;;;;;;;;5008342;28;20034;-71
2024/02/26 07:26:34;;;;;;;21.80;9.45;;;;;;;;;;5014163;28;20491;-71
2024/02/26 07:29:20;;;;;;;29.63;10.75;;;;;;;;;;5000941;28;20030;-71
2024/02/26 07:32:06;;;;;;;24.00;9.40;;;;;;;;;;5025656;28;20160;-71
2024/02/26 07:34:51;;;;;;;30.27;11.15;;;;;;;;;;5021358;28;20079;-72
2024/02/26 07:37:37;;;;;;;29.13;10.55;;;;;;;;;;5017979;28;20029;-71
2024/02/26 07:40:23;;;;;;;28.75;11.68;;;;;;;;;;5002550;28;20029;-71
2024/02/26 07:43:09;;;;;;;34.05;10.20;;;;;;;;;;5016218;28;20022;-71
2024/02/26 07:45:54;;;;;;;27.50;10.48;;;;;;;;;;5007904;28;20030;-71
2024/02/26 07:48:41;;;;;;;31.08;10.73;;;;;;;;;;5002945;28;20026;-71
2024/02/26 07:51:26;;;;;;;26.55;10.70;;;;;;;;;;5027056;28;20057;-71
2024/02/26 07:54:12;;;;;;;29.95;11.15;;;;;;;;;;5016550;28;20104;-71
2024/02/26 07:56:58;;;;;;;30.65;11.45;;;;;;;;;;5015993;28;20026;-71
2024/02/26 07:59:44;;;;;;;28.80;11.85;;;;;;;;;;5019486;28;20124;-71
2024/02/26 08:02:30;;;;;;;30.40;11.05;;;;;;;;;;5016037;28;20057;-70
2024/02/26 08:05:18;;;;;;;25.73;11.40;;;;;;;;;;5002759;28;20109;-71
2024/02/26 08:08:05;;;;;;;31.65;9.80;;;;;;;;;;5019895;28;20946;-71
2024/02/26 08:10:50;;;;;;;33.95;12.38;;;;;;;;;;5018124;28;20072;-71
2024/02/26 08:13:36;;;;;;;31.40;10.05;;;;;;;;;;5016117;28;20404;-71
2024/02/26 08:16:23;;;;;;;30.02;11.68;;;;;;;;;;5033238;28;20026;-71
2024/02/26 08:19:11;;;;;;;35.25;12.70;;;;;;;;;;5017658;28;20025;-71
2024/02/26 08:21:56;;;;;;;29.77;13.15;;;;;;;;;;5006600;28;20025;-71
2024/02/26 08:24:42;;;;;;;34.13;13.43;;;;;;;;;;5018992;28;20106;-72
2024/02/26 08:27:31;;;;;;;30.38;13.02;;;;;;;;;;5034249;28;20021;-72
2024/02/26 08:30:17;;;;;;;27.80;11.50;;;;;;;;;;5031569;28;20053;-72
2024/02/26 08:33:02;;;;;;;35.92;12.00;;;;;;;;;;5033762;28;20029;-72
2024/02/26 08:35:48;;;;;;;38.65;13.70;;;;;;;;;;5000762;28;20033;-72
2024/02/26 08:38:35;;;;;;;41.78;13.70;;;;;;;;;;4987655;28;20022;-72
2024/02/26 08:41:21;;;;;;;35.03;12.30;;;;;;;;;;5006445;28;20028;-72
2024/02/26 08:44:06;;;;;;;40.22;12.23;;;;;;;;;;5014542;28;20030;-73
2024/02/26 08:46:52;;;;;;;32.95;12.00;;;;;;;;;;5011689;28;20048;-73
2024/02/26 08:49:45;;;;;;;33.30;13.40;;;;;;;;;;5014697;28;20049;-72
2024/02/26 08:52:31;;;;;;;27.45;11.60;;;;;;;;;;5016497;28;20025;-72
2024/02/26 08:55:17;;;;;;;29.40;10.63;;;;;;;;;;4999451;28;20084;-73
2024/02/26 08:58:02;;;;;;;40.25;12.63;;;;;;;;;;5014487;28;20034;-73
2024/02/26 09:00:48;;;;;;;36.65;11.90;;;;;;;;;;5002486;28;20030;-73
2024/02/26 09:03:34;;;;;;;29.92;11.38;;;;;;;;;;4999802;28;20042;-73
2024/02/26 09:06:19;;;;;;;27.55;10.50;;;;;;;;;;5008181;28;20472;-73
2024/02/26 09:09:05;;;;;;;26.15;10.70;;;;;;;;;;5000584;28;20488;-73
2024/02/26 09:11:51;;;;;;;28.80;10.73;;;;;;;;;;5014371;28;20483;-73
2024/02/26 09:14:37;;;;;;;30.20;11.20;;;;;;;;;;5014481;28;20021;-73
2024/02/26 09:17:23;;;;;;;30.92;11.77;;;;;;;;;;5024124;28;20032;-72
2024/02/26 09:20:09;;;;;;;27.05;10.95;;;;;;;;;;5032308;28;20104;-73
2024/02/26 09:22:54;;;;;;;30.45;9.25;;;;;;;;;;5001579;28;20399;-73
2024/02/26 09:25:40;;;;;;;30.10;12.07;;;;;;;;;;5019470;28;20084;-73
2024/02/26 09:28:26;;;;;;;30.92;11.05;;;;;;;;;;5013899;28;20022;-72
2024/02/26 09:31:11;;;;;;;25.55;10.25;;;;;;;;;;5007476;28;20594;-72
2024/02/26 09:33:57;;;;;;;28.73;10.48;;;;;;;;;;5032702;28;20080;-73
2024/02/26 09:36:43;;;;;;;24.95;10.73;;;;;;;;;;5019999;28;20022;-73
2024/02/26 09:39:29;;;;;;;27.73;11.27;;;;;;;;;;5019291;28;20022;-73
2024/02/26 09:42:18;;;;;;;28.02;10.60;;;;;;;;;;5015143;28;20410;-73
2024/02/26 09:45:08;;;;;;;24.75;10.52;;;;;;;;;;4999636;28;20036;-72
2024/02/26 09:47:55;;;;;;;29.92;11.50;;;;;;;;;;5004303;28;20025;-72
2024/02/26 09:50:42;;;;;;;26.05;10.75;;;;;;;;;;5029182;28;20032;-72
2024/02/26 09:53:29;;;;;;;27.23;10.88;;;;;;;;;;5018096;28;20550;-72
2024/02/26 09:56:15;;;;;;;21.25;10.02;;;;;;;;;;5006307;28;20029;-72
2024/02/26 09:59:01;;;;;;;20.75;10.05;;;;;;;;;;4997436;28;20029;-70
2024/02/26 10:01:47;;;;;;;21.35;8.93;;;;;;;;;;5018169;28;20056;-72
2024/02/26 10:04:33;;;;;;;20.73;8.90;;;;;;;;;;5015913;28;20033;-71
2024/02/26 10:07:19;;;;;;;21.15;9.07;;;;;;;;;;5031869;28;20031;-72
2024/02/26 10:10:05;;;;;;;22.80;10.35;;;;;;;;;;4992644;28;20053;-72
2024/02/26 10:12:51;;;;;;;21.25;10.15;;;;;;;;;;4998713;28;20095;-73
2024/02/26 10:15:36;;;;;;;21.92;10.52;;;;;;;;;;5021565;28;20034;-73
2024/02/26 10:18:25;;;;;;;25.88;10.38;;;;;;;;;;5031777;28;20022;-73
2024/02/26 10:21:11;;;;;;;21.95;9.05;;;;;;;;;;5014927;28;20036;-73
2024/02/26 10:23:56;;;;;;;24.40;10.35;;;;;;;;;;5017972;28;20087;-72
2024/02/26 10:26:46;;;;;;;18.48;9.65;;;;;;;;;;5017038;28;20037;-72
2024/02/26 10:29:32;;;;;;;25.80;10.57;;;;;;;;;;5030584;28;20104;-72
2024/02/26 10:32:17;;;;;;;25.60;10.20;;;;;;;;;;5013282;28;20030;-72
2024/02/26 10:35:10;;;;;;;26.77;11.07;;;;;;;;;;5022703;28;20032;-72
2024/02/26 10:37:56;;;;;;;25.33;10.95;;;;;;;;;;5034118;28;20018;-73
2024/02/26 10:40:41;;;;;;;29.05;10.98;;;;;;;;;;5017517;28;20403;-72
2024/02/26 10:43:27;;;;;;;28.60;10.55;;;;;;;;;;5010203;28;20121;-72
2024/02/26 10:46:14;;;;;;;23.10;10.65;;;;;;;;;;5013086;28;20036;-72
2024/02/26 10:49:00;;;;;;;22.95;11.13;;;;;;;;;;5008709;28;20044;-72
2024/02/26 10:51:57;;;;;;;20.95;9.52;;;;;;;;;;5010065;28;20026;-72
2024/02/26 10:54:47;;;;;;;23.30;10.82;;;;;;;;;;5013315;28;20099;-71
2024/02/26 10:57:39;;;;;;;27.70;11.15;;;;;;;;;;5015466;28;20018;-71
2024/02/26 11:00:26;;;;;;;23.42;10.80;;;;;;;;;;5016021;28;20028;-72
2024/02/26 11:03:19;;;;;;;29.00;10.90;;;;;;;;;;5002818;28;20080;-72
2024/02/26 11:06:05;;;;;;;24.08;10.20;;;;;;;;;;5008229;28;20175;-73
2024/02/26 11:08:52;;;;;;;21.77;10.82;;;;;;;;;;5018438;28;20022;-72
2024/02/26 11:11:37;;;;;;;25.80;10.95;;;;;;;;;;5019144;28;20104;-72
2024/02/26 11:14:25;;;;;;;24.38;10.98;;;;;;;;;;5022160;28;20025;-72
2024/02/26 11:17:12;;;;;;;22.65;11.45;;;;;;;;;;5021832;28;20025;-72
2024/02/26 11:20:02;;;;;;;27.98;12.60;;;;;;;;;;5022125;28;20026;-72
2024/02/26 11:22:47;;;;;;;24.10;10.52;;;;;;;;;;5012488;28;20492;-73
2024/02/26 11:25:34;;;;;;;23.35;10.68;;;;;;;;;;5032456;28;20106;-72
2024/02/26 11:28:20;;;;;;;23.15;10.32;;;;;;;;;;5021259;28;20056;-72
2024/02/26 11:31:07;;;;;;;26.17;11.88;;;;;;;;;;5013589;28;20034;-72
2024/02/26 11:33:54;;;;;;;25.38;11.27;;;;;;;;;;5002131;28;20107;-72
2024/02/26 11:36:41;;;;;;;24.25;10.23;;;;;;;;;;5001352;28;20032;-72
2024/02/26 11:39:27;;;;;;;21.40;10.48;;;;;;;;;;5022505;28;20038;-73
2024/02/26 11:42:16;;;;;;;20.40;9.52;;;;;;;;;;5016673;28;20026;-72
2024/02/26 11:45:02;;;;;;;21.38;10.80;;;;;;;;;;5000584;28;20104;-72
2024/02/26 11:47:56;;;;;;;22.65;10.07;;;;;;;;;;4994860;28;20026;-72
2024/02/26 11:50:45;;;;;;;25.08;10.85;;;;;;;;;;5016192;28;20028;-73
2024/02/26 11:53:31;;;;;;;23.15;11.55;;;;;;;;;;4991133;28;20017;-72
2024/02/26 11:56:17;;;;;;;23.95;9.48;;;;;;;;;;5033317;28;20026;-72
2024/02/26 11:59:09;;;;;;;23.90;9.20;;;;;;;;;;5036513;28;20422;-72
2024/02/26 12:01:57;;;;;;;19.65;9.18;;;;;;;;;;5018406;28;20080;-72
2024/02/26 12:04:43;;;;;;;22.88;9.55;;;;;;;;;;5015531;28;20482;-72
2024/02/26 12:07:29;;;;;;;19.05;10.02;;;;;;;;;;5001743;28;20050;-72
2024/02/26 12:10:28;;;;;;;23.23;9.90;;;;;;;;;;5005967;28;20021;-72
2024/02/26 12:13:15;;;;;;;24.70;11.45;;;;;;;;;;5036026;28;20026;-72
2024/02/26 12:16:01;;;;;;;20.58;9.25;;;;;;;;;;5018834;28;20039;-72
2024/02/26 12:18:46;;;;;;;22.52;10.80;;;;;;;;;;5036418;28;20029;-72
2024/02/26 12:21:37;;;;;;;20.73;10.00;;;;;;;;;;5019951;28;20025;-70
2024/02/26 12:24:22;;;;;;;;;;;;;;;;;;5017808;28;20092;-69
2024/02/26 12:27:08;;;;;;;19.50;9.30;;;;;;;;;;5033235;28;19909;-70
2024/02/26 12:29:56;;;;;;;21.08;9.82;;;;;;;;;;5034960;28;20482;-70
2024/02/26 12:32:42;;;;;;;20.40;9.77;;;;;;;;;;5020987;28;20025;-72
2024/02/26 12:35:28;;;;;;;21.98;9.65;;;;;;;;;;5035749;28;20060;-71
2024/02/26 12:38:15;;;;;;;22.45;10.68;;;;;;;;;;5007133;28;20115;-72
2024/02/26 12:41:03;;;;;;;19.85;10.02;;;;;;;;;;5029991;28;20507;-71
2024/02/26 12:43:49;;;;;;;16.67;8.93;;;;;;;;;;5019126;28;20038;-72
2024/02/26 12:46:35;;;;;;;20.15;10.23;;;;;;;;;;5034196;28;20100;-72
2024/02/26 12:49:20;;;;;;;16.88;9.23;;;;;;;;;;5020083;28;20068;-72
2024/02/26 12:52:06;;;;;;;16.40;8.40;;;;;;;;;;5015397;28;20017;-72
2024/02/26 12:54:52;;;;;;;19.63;9.95;;;;;;;;;;5018877;28;20079;-72
2024/02/26 12:57:38;;;;;;;17.60;8.15;;;;;;;;;;5017241;28;20030;-72
2024/02/26 13:00:26;;;;;;;17.98;8.25;;;;;;;;;;5019093;28;20478;-72
2024/02/26 13:03:15;;;;;;;16.45;6.95;;;;;;;;;;5019235;28;20409;-71
2024/02/26 13:06:01;;;;;;;18.15;7.65;;;;;;;;;;5030993;28;20032;-72
2024/02/26 13:08:46;;;;;;;16.73;8.80;;;;;;;;;;5016673;28;20029;-72
2024/02/26 13:11:32;;;;;;;14.98;8.40;;;;;;;;;;5014384;28;20030;-72
2024/02/26 13:14:24;;;;;;;14.90;8.10;;;;;;;;;;5015504;28;20038;-72
2024/02/26 13:17:10;;;;;;;15.23;7.35;;;;;;;;;;5011873;28;20032;-72
2024/02/26 13:19:55;;;;;;;17.33;8.65;;;;;;;;;;5003800;28;20021;-72
2024/02/26 13:22:41;;;;;;;11.75;5.57;;;;;;;;;;5033033;28;20391;-72
2024/02/26 13:25:29;;;;;;;9.98;5.78;;;;;;;;;;5015523;28;20057;-71
2024/02/26 13:28:17;;;;;;;12.15;6.90;;;;;;;;;;4987673;28;20504;-72
2024/02/26 13:31:05;;;;;;;11.32;6.78;;;;;;;;;;4998019;28;20026;-72
2024/02/26 13:33:53;;;;;;;12.05;6.13;;;;;;;;;;5016917;28;20504;-71
2024/02/26 13:36:40;;;;;;;13.13;6.55;;;;;;;;;;4998952;28;20683;-72
2024/02/26 13:39:27;;;;;;;10.75;6.35;;;;;;;;;;5028592;28;20022;-71
2024/02/26 13:42:13;;;;;;;12.35;6.40;;;;;;;;;;5019276;28;20021;-72
2024/02/26 13:44:59;;;;;;;13.27;7.03;;;;;;;;;;5028657;28;20045;-72
2024/02/26 13:47:48;;;;;;;14.15;6.82;;;;;;;;;;5019868;28;20136;-72
2024/02/26 13:50:34;;;;;;;11.43;6.30;;;;;;;;;;5031409;28;20037;-71
2024/02/26 13:53:23;;;;;;;13.57;7.15;;;;;;;;;;4999599;28;20025;-72
2024/02/26 13:56:10;;;;;;;12.10;6.85;;;;;;;;;;5019466;28;20030;-71
2024/02/26 13:58:55;;;;;;;12.18;5.20;;;;;;;;;;5014782;28;20467;-72
2024/02/26 14:01:41;;;;;;;13.13;7.63;;;;;;;;;;5015188;28;20037;-72
2024/02/26 14:04:26;;;;;;;10.57;6.70;;;;;;;;;;5015059;28;20054;-72
2024/02/26 14:07:13;;;;;;;12.52;5.55;;;;;;;;;;5012668;28;20410;-72
2024/02/26 14:09:58;;;;;;;11.23;5.88;;;;;;;;;;5015529;28;20419;-72
2024/02/26 14:12:44;;;;;;;11.40;6.75;;;;;;;;;;5012657;28;20018;-72
2024/02/26 14:15:30;;;;;;;14.60;6.70;;;;;;;;;;5028382;28;20053;-72
2024/02/26 14:18:15;;;;;;;9.48;6.07;;;;;;;;;;5033347;28;20424;-72
2024/02/26 14:21:01;;;;;;;10.63;6.18;;;;;;;;;;5033069;28;20576;-72
2024/02/26 14:23:47;;;;;;;10.63;6.10;;;;;;;;;;5029422;28;20030;-71
2024/02/26 14:26:32;;;;;;;15.63;8.00;;;;;;;;;;5022266;28;20022;-72
2024/02/26 14:29:18;;;;;;;12.13;7.18;;;;;;;;;;5013052;28;20026;-72
2024/02/26 14:32:04;;;;;;;13.07;7.03;;;;;;;;;;5017817;28;20515;-71
2024/02/26 14:34:50;;;;;;;13.57;7.78;;;;;;;;;;5013641;28;20049;-71
2024/02/26 14:37:36;;;;;;;14.02;7.10;;;;;;;;;;5016589;28;20036;-71
2024/02/26 14:40:22;;;;;;;13.57;6.90;;;;;;;;;;5018172;28;20510;-71
2024/02/26 14:43:09;;;;;;;13.35;7.28;;;;;;;;;;5027396;28;20022;-70
2024/02/26 14:45:57;;;;;;;11.40;5.93;;;;;;;;;;5027744;28;20034;-71
2024/02/26 14:48:42;;;;;;;10.43;5.75;;;;;;;;;;5018609;28;20569;-71
2024/02/26 14:51:28;;;;;;;9.80;5.53;;;;;;;;;;5018045;28;20029;-72
2024/02/26 14:54:14;;;;;;;11.63;5.82;;;;;;;;;;5012192;28;20056;-71
2024/02/26 14:56:55;;;;;;;10.63;5.47;;;;;;;;;;5044545;23;20059;-71
2024/02/26 14:59:42;;;;;;;9.48;5.35;;;;;;;;;;5052107;28;20036;-71
2024/02/26 15:02:28;;;;;;;8.73;4.25;;;;;;;;;;5031703;28;20461;-71
2024/02/26 15:05:16;;;;;;;9.77;5.82;;;;;;;;;;5033749;28;20053;-70
2024/02/26 15:08:02;;;;;;;8.70;4.97;;;;;;;;;;5037108;28;20196;-71
2024/02/26 15:10:48;;;;;;;11.40;5.78;;;;;;;;;;5033033;28;20029;-71
2024/02/26 15:13:36;;;;;;;11.20;5.93;;;;;;;;;;5034477;28;20045;-71
2024/02/26 15:16:21;;;;;;;9.55;6.30;;;;;;;;;;5022462;28;20518;-71
2024/02/26 15:19:07;;;;;;;10.85;6.28;;;;;;;;;;5034218;28;20502;-71
2024/02/26 15:21:53;;;;;;;9.00;6.35;;;;;;;;;;5038035;28;20059;-71
2024/02/26 15:24:38;;;;;;;10.82;5.60;;;;;;;;;;5035794;28;20026;-71
2024/02/26 15:27:24;;;;;;;9.40;5.28;;;;;;;;;;5036096;28;20060;-71
2024/02/26 15:30:10;;;;;;;11.88;5.25;;;;;;;;;;5036122;28;20465;-71
2024/02/26 15:32:56;;;;;;;11.38;4.88;;;;;;;;;;5019205;28;20380;-71
2024/02/26 15:35:44;;;;;;;9.55;6.20;;;;;;;;;;5034625;28;20018;-71
2024/02/26 15:38:30;;;;;;;12.05;6.78;;;;;;;;;;5030262;28;20028;-71
2024/02/26 15:41:16;;;;;;;11.10;5.63;;;;;;;;;;5021983;28;20049;-71
2024/02/26 15:44:02;;;;;;;10.18;5.57;;;;;;;;;;5030936;28;20406;-70
2024/02/26 15:46:48;;;;;;;11.68;5.57;;;;;;;;;;5050139;28;20409;-69
2024/02/26 15:49:33;;;;;;;11.38;5.35;;;;;;;;;;5041143;28;20412;-70
2024/02/26 15:52:19;;;;;;;12.23;6.47;;;;;;;;;;5032119;28;20020;-70
2024/02/26 15:55:05;;;;;;;9.68;5.78;;;;;;;;;;5038667;28;20080;-72
2024/02/26 15:57:51;;;;;;;11.73;5.50;;;;;;;;;;5046179;28;20067;-71
2024/02/26 16:00:41;;;;;;;13.95;6.45;;;;;;;;;;5049579;28;20102;-71
2024/02/26 16:03:27;;;;;;;16.48;6.47;;;;;;;;;;5032529;28;20021;-71
2024/02/26 16:06:27;;;;;;;12.95;7.05;;;;;;;;;;5035629;28;20037;-72
2024/02/26 16:09:12;;;;;;;11.57;5.45;;;;;;;;;;5041383;28;20422;-73
2024/02/26 16:11:58;;;;;;;12.75;6.50;;;;;;;;;;5049357;28;20079;-73
2024/02/26 16:14:48;;;;;;;8.98;5.82;;;;;;;;;;5045995;28;20029;-70
2024/02/26 16:17:35;;;;;;;11.05;6.05;;;;;;;;;;5026650;28;20029;-71